sensor_id;sensor_type;location;lat;lon;timestamp;pressure;altitude;pressure_sealevel;temperature;humidity
60267;BME280;46125;61.360;-149.532;2023-05-09T00:00:15;99338.41;;;8.18;33.76
60267;BME280;46125;61.360;-149.532;2023-05-09T00:02:43;99338.85;;;7.83;32.84
60267;BME280;46125;61.360;-149.532;2023-05-09T00:05:11;99336.42;;;8.05;34.40
60267;BME280;46125;61.360;-149.532;2023-05-09T00:07:40;99336.34;;;8.18;34.73
60267;BME280;46125;61.360;-149.532;2023-05-09T00:10:09;99337.99;;;8.53;34.07
60267;BME280;46125;61.360;-149.532;2023-05-09T00:12:38;99340.72;;;8.36;33.37
60267;BME280;46125;61.360;-149.532;2023-05-09T00:15:07;99344.12;;;8.04;34.45
60267;BME280;46125;61.360;-149.532;2023-05-09T00:17:41;99344.50;;;7.96;33.76
60267;BME280;46125;61.360;-149.532;2023-05-09T00:20:10;99335.20;;;8.16;33.52
60267;BME280;46125;61.360;-149.532;2023-05-09T00:22:55;99337.78;;;8.73;32.48
60267;BME280;46125;61.360;-149.532;2023-05-09T00:25:24;99338.97;;;8.44;32.30
60267;BME280;46125;61.360;-149.532;2023-05-09T00:27:52;99332.09;;;8.24;32.34
60267;BME280;46125;61.360;-149.532;2023-05-09T00:30:20;99339.06;;;8.15;33.57
60267;BME280;46125;61.360;-149.532;2023-05-09T00:32:49;99329.57;;;7.88;34.51
60267;BME280;46125;61.360;-149.532;2023-05-09T00:35:17;99333.65;;;7.82;33.50
60267;BME280;46125;61.360;-149.532;2023-05-09T00:37:46;99335.43;;;7.23;33.79
60267;BME280;46125;61.360;-149.532;2023-05-09T00:40:15;99340.40;;;7.24;33.93
60267;BME280;46125;61.360;-149.532;2023-05-09T00:42:49;99337.51;;;7.53;35.51
60267;BME280;46125;61.360;-149.532;2023-05-09T00:45:17;99330.93;;;7.43;34.90
60267;BME280;46125;61.360;-149.532;2023-05-09T00:47:46;99330.12;;;7.59;35.00
60267;BME280;46125;61.360;-149.532;2023-05-09T00:50:15;99333.57;;;7.07;35.08
60267;BME280;46125;61.360;-149.532;2023-05-09T00:52:43;99325.01;;;7.39;37.20
60267;BME280;46125;61.360;-149.532;2023-05-09T00:55:12;99320.50;;;6.53;36.26
60267;BME280;46125;61.360;-149.532;2023-05-09T00:57:41;99331.61;;;6.70;35.50
60267;BME280;46125;61.360;-149.532;2023-05-09T01:00:11;99330.60;;;6.80;35.06
60267;BME280;46125;61.360;-149.532;2023-05-09T01:02:39;99315.68;;;6.32;35.47
60267;BME280;46125;61.360;-149.532;2023-05-09T01:05:09;99328.83;;;6.28;36.61
60267;BME280;46125;61.360;-149.532;2023-05-09T01:07:45;99325.91;;;6.37;35.28
60267;BME280;46125;61.360;-149.532;2023-05-09T01:10:22;99337.37;;;6.51;35.89
60267;BME280;46125;61.360;-149.532;2023-05-09T01:12:58;99317.48;;;6.06;35.46
60267;BME280;46125;61.360;-149.532;2023-05-09T01:15:35;99320.35;;;6.60;36.51
60267;BME280;46125;61.360;-149.532;2023-05-09T01:18:14;99325.00;;;6.31;35.77
60267;BME280;46125;61.360;-149.532;2023-05-09T01:20:49;99326.96;;;6.48;35.68
60267;BME280;46125;61.360;-149.532;2023-05-09T01:23:38;99335.41;;;6.79;34.94
60267;BME280;46125;61.360;-149.532;2023-05-09T01:26:19;99322.25;;;6.52;36.05
60267;BME280;46125;61.360;-149.532;2023-05-09T01:29:36;99315.73;;;6.24;35.50
60267;BME280;46125;61.360;-149.532;2023-05-09T01:32:09;99300.34;;;6.50;34.96
60267;BME280;46125;61.360;-149.532;2023-05-09T01:34:41;99308.80;;;5.96;36.03
60267;BME280;46125;61.360;-149.532;2023-05-09T01:37:12;99316.93;;;6.28;35.86
60267;BME280;46125;61.360;-149.532;2023-05-09T01:39:46;99320.66;;;6.62;35.70
60267;BME280;46125;61.360;-149.532;2023-05-09T01:42:17;99314.03;;;6.60;34.96
60267;BME280;46125;61.360;-149.532;2023-05-09T01:44:48;99313.21;;;6.59;33.62
60267;BME280;46125;61.360;-149.532;2023-05-09T01:47:18;99307.98;;;7.07;33.94
60267;BME280;46125;61.360;-149.532;2023-05-09T01:49:47;99307.19;;;6.87;33.03
60267;BME280;46125;61.360;-149.532;2023-05-09T01:52:18;99315.78;;;6.31;34.46
60267;BME280;46125;61.360;-149.532;2023-05-09T01:54:47;99318.79;;;6.85;35.31
60267;BME280;46125;61.360;-149.532;2023-05-09T01:57:18;99310.01;;;7.26;34.25
60267;BME280;46125;61.360;-149.532;2023-05-09T01:59:48;99313.75;;;6.90;34.04
60267;BME280;46125;61.360;-149.532;2023-05-09T02:02:17;99314.14;;;6.85;33.33
60267;BME280;46125;61.360;-149.532;2023-05-09T02:04:46;99312.93;;;6.74;34.80
60267;BME280;46125;61.360;-149.532;2023-05-09T02:07:25;99314.49;;;6.86;34.74
60267;BME280;46125;61.360;-149.532;2023-05-09T02:09:58;99296.17;;;5.86;33.44
60267;BME280;46125;61.360;-149.532;2023-05-09T02:12:28;99307.50;;;6.37;34.77
60267;BME280;46125;61.360;-149.532;2023-05-09T02:15:01;99305.32;;;6.50;35.72
60267;BME280;46125;61.360;-149.532;2023-05-09T02:17:30;99297.07;;;6.33;35.23
60267;BME280;46125;61.360;-149.532;2023-05-09T02:19:58;99315.85;;;6.59;34.18
60267;BME280;46125;61.360;-149.532;2023-05-09T02:22:27;99305.97;;;6.90;34.33
60267;BME280;46125;61.360;-149.532;2023-05-09T02:24:57;99309.70;;;7.18;34.86
60267;BME280;46125;61.360;-149.532;2023-05-09T02:27:25;99316.89;;;6.60;36.18
60267;BME280;46125;61.360;-149.532;2023-05-09T02:29:56;99315.37;;;6.60;35.31
60267;BME280;46125;61.360;-149.532;2023-05-09T02:32:28;99308.90;;;7.17;33.97
60267;BME280;46125;61.360;-149.532;2023-05-09T02:34:59;99313.49;;;6.50;34.61
60267;BME280;46125;61.360;-149.532;2023-05-09T02:37:28;99310.00;;;6.29;35.93
60267;BME280;46125;61.360;-149.532;2023-05-09T02:39:58;99317.52;;;6.44;34.58
60267;BME280;46125;61.360;-149.532;2023-05-09T02:42:27;99312.60;;;6.60;34.92
60267;BME280;46125;61.360;-149.532;2023-05-09T02:44:56;99317.68;;;6.39;35.09
60267;BME280;46125;61.360;-149.532;2023-05-09T02:47:24;99321.90;;;6.29;35.57
60267;BME280;46125;61.360;-149.532;2023-05-09T02:49:53;99317.23;;;5.82;36.28
60267;BME280;46125;61.360;-149.532;2023-05-09T02:52:21;99314.25;;;5.51;35.96
60267;BME280;46125;61.360;-149.532;2023-05-09T02:54:50;99310.84;;;6.02;34.86
60267;BME280;46125;61.360;-149.532;2023-05-09T02:57:18;99315.62;;;5.67;36.39
60267;BME280;46125;61.360;-149.532;2023-05-09T02:59:47;99310.99;;;5.79;36.85
60267;BME280;46125;61.360;-149.532;2023-05-09T03:02:15;99303.30;;;5.42;35.70
60267;BME280;46125;61.360;-149.532;2023-05-09T03:04:44;99314.95;;;5.71;36.28
60267;BME280;46125;61.360;-149.532;2023-05-09T03:07:12;99315.80;;;5.63;37.09
60267;BME280;46125;61.360;-149.532;2023-05-09T03:09:41;99319.98;;;5.48;37.32
60267;BME280;46125;61.360;-149.532;2023-05-09T03:12:10;99308.70;;;5.78;36.19
60267;BME280;46125;61.360;-149.532;2023-05-09T03:14:38;99304.84;;;5.66;36.09
60267;BME280;46125;61.360;-149.532;2023-05-09T03:17:07;99308.76;;;5.75;38.51
60267;BME280;46125;61.360;-149.532;2023-05-09T03:19:35;99306.83;;;5.05;36.51
60267;BME280;46125;61.360;-149.532;2023-05-09T03:22:04;99293.03;;;5.40;36.27
60267;BME280;46125;61.360;-149.532;2023-05-09T03:24:32;99299.11;;;5.85;35.72
60267;BME280;46125;61.360;-149.532;2023-05-09T03:27:01;99297.90;;;5.75;35.57
60267;BME280;46125;61.360;-149.532;2023-05-09T03:29:29;99300.55;;;5.75;36.25
60267;BME280;46125;61.360;-149.532;2023-05-09T03:31:58;99300.75;;;5.72;36.37
60267;BME280;46125;61.360;-149.532;2023-05-09T03:34:26;99312.11;;;5.87;36.17
60267;BME280;46125;61.360;-149.532;2023-05-09T03:36:55;99313.68;;;6.20;34.99
60267;BME280;46125;61.360;-149.532;2023-05-09T03:39:23;99302.12;;;6.01;34.88
60267;BME280;46125;61.360;-149.532;2023-05-09T03:41:52;99303.82;;;5.40;36.44
60267;BME280;46125;61.360;-149.532;2023-05-09T03:44:20;99307.99;;;5.50;36.83
60267;BME280;46125;61.360;-149.532;2023-05-09T03:46:50;99302.11;;;5.81;36.12
60267;BME280;46125;61.360;-149.532;2023-05-09T03:49:18;99305.78;;;5.91;37.04
60267;BME280;46125;61.360;-149.532;2023-05-09T03:51:47;99303.85;;;5.60;36.12
60267;BME280;46125;61.360;-149.532;2023-05-09T03:54:15;99302.78;;;5.75;35.18
60267;BME280;46125;61.360;-149.532;2023-05-09T03:56:44;99307.32;;;5.58;35.80
60267;BME280;46125;61.360;-149.532;2023-05-09T03:59:12;99314.83;;;5.45;36.43
60267;BME280;46125;61.360;-149.532;2023-05-09T04:01:41;99313.10;;;5.42;36.56
60267;BME280;46125;61.360;-149.532;2023-05-09T04:04:10;99313.00;;;5.30;36.52
60267;BME280;46125;61.360;-149.532;2023-05-09T04:06:38;99302.72;;;4.85;37.14
60267;BME280;46125;61.360;-149.532;2023-05-09T04:09:12;99315.11;;;4.77;38.54
60267;BME280;46125;61.360;-149.532;2023-05-09T04:11:40;99306.51;;;4.58;38.35
60267;BME280;46125;61.360;-149.532;2023-05-09T04:14:09;99304.59;;;5.08;37.83
60267;BME280;46125;61.360;-149.532;2023-05-09T04:16:37;99295.54;;;4.94;37.79
60267;BME280;46125;61.360;-149.532;2023-05-09T04:19:06;99304.82;;;4.79;37.01
60267;BME280;46125;61.360;-149.532;2023-05-09T04:21:34;99298.50;;;5.24;36.36
60267;BME280;46125;61.360;-149.532;2023-05-09T04:24:03;99293.79;;;4.76;37.63
60267;BME280;46125;61.360;-149.532;2023-05-09T04:26:32;99287.01;;;4.68;36.81
60267;BME280;46125;61.360;-149.532;2023-05-09T04:29:00;99303.46;;;4.81;37.50
60267;BME280;46125;61.360;-149.532;2023-05-09T04:31:34;99292.78;;;5.08;37.76
60267;BME280;46125;61.360;-149.532;2023-05-09T04:34:03;99284.22;;;4.55;37.06
60267;BME280;46125;61.360;-149.532;2023-05-09T04:36:31;99282.57;;;4.53;36.98
60267;BME280;46125;61.360;-149.532;2023-05-09T04:39:00;99284.46;;;5.24;36.02
60267;BME280;46125;61.360;-149.532;2023-05-09T04:41:38;99288.05;;;5.36;36.37
60267;BME280;46125;61.360;-149.532;2023-05-09T04:44:06;99284.31;;;4.70;37.07
60267;BME280;46125;61.360;-149.532;2023-05-09T04:46:35;99286.55;;;4.81;36.88
60267;BME280;46125;61.360;-149.532;2023-05-09T04:49:04;99279.01;;;4.66;36.35
60267;BME280;46125;61.360;-149.532;2023-05-09T04:51:33;99286.63;;;4.55;37.27
60267;BME280;46125;61.360;-149.532;2023-05-09T04:54:01;99286.28;;;4.99;37.37
60267;BME280;46125;61.360;-149.532;2023-05-09T04:56:30;99285.05;;;4.57;36.55
60267;BME280;46125;61.360;-149.532;2023-05-09T04:58:59;99288.49;;;5.18;36.26
60267;BME280;46125;61.360;-149.532;2023-05-09T05:01:28;99287.46;;;5.28;35.05
60267;BME280;46125;61.360;-149.532;2023-05-09T05:03:56;99286.06;;;5.21;36.58
60267;BME280;46125;61.360;-149.532;2023-05-09T05:06:35;99285.84;;;5.39;35.62
60267;BME280;46125;61.360;-149.532;2023-05-09T05:09:04;99288.79;;;5.73;34.76
60267;BME280;46125;61.360;-149.532;2023-05-09T05:11:32;99289.33;;;5.39;35.45
60267;BME280;46125;61.360;-149.532;2023-05-09T05:14:01;99286.13;;;5.23;35.58
60267;BME280;46125;61.360;-149.532;2023-05-09T05:16:29;99286.75;;;5.23;35.16
60267;BME280;46125;61.360;-149.532;2023-05-09T05:18:58;99292.38;;;5.10;35.86
60267;BME280;46125;61.360;-149.532;2023-05-09T05:21:26;99295.39;;;5.38;36.75
60267;BME280;46125;61.360;-149.532;2023-05-09T05:24:01;99292.23;;;5.11;35.62
60267;BME280;46125;61.360;-149.532;2023-05-09T05:26:39;99294.69;;;5.08;35.94
60267;BME280;46125;61.360;-149.532;2023-05-09T05:29:08;99301.69;;;5.96;35.15
60267;BME280;46125;61.360;-149.532;2023-05-09T05:31:37;99302.49;;;5.78;35.23
60267;BME280;46125;61.360;-149.532;2023-05-09T05:35:20;99304.06;;;5.89;34.84
60267;BME280;46125;61.360;-149.532;2023-05-09T05:38:14;99303.77;;;6.20;35.44
60267;BME280;46125;61.360;-149.532;2023-05-09T05:40:53;99302.33;;;5.72;36.10
60267;BME280;46125;61.360;-149.532;2023-05-09T05:43:21;99302.21;;;5.48;36.33
60267;BME280;46125;61.360;-149.532;2023-05-09T05:45:50;99300.47;;;5.23;36.02
60267;BME280;46125;61.360;-149.532;2023-05-09T05:48:19;99306.41;;;5.21;37.74
60267;BME280;46125;61.360;-149.532;2023-05-09T05:50:48;99310.48;;;5.52;38.06
60267;BME280;46125;61.360;-149.532;2023-05-09T05:53:17;99313.41;;;6.00;36.49
60267;BME280;46125;61.360;-149.532;2023-05-09T05:55:45;99314.58;;;6.06;36.64
60267;BME280;46125;61.360;-149.532;2023-05-09T05:58:14;99320.26;;;6.23;37.46
60267;BME280;46125;61.360;-149.532;2023-05-09T06:00:47;99322.76;;;5.74;36.62
60267;BME280;46125;61.360;-149.532;2023-05-09T06:03:16;99326.44;;;6.28;36.96
60267;BME280;46125;61.360;-149.532;2023-05-09T06:05:46;99324.73;;;6.33;36.59
60267;BME280;46125;61.360;-149.532;2023-05-09T06:08:15;99328.12;;;6.14;36.40
60267;BME280;46125;61.360;-149.532;2023-05-09T06:10:43;99331.20;;;6.10;37.68
60267;BME280;46125;61.360;-149.532;2023-05-09T06:13:12;99336.39;;;6.86;35.45
60267;BME280;46125;61.360;-149.532;2023-05-09T06:15:41;99338.99;;;6.93;35.90
60267;BME280;46125;61.360;-149.532;2023-05-09T06:18:09;99336.59;;;6.75;35.10
60267;BME280;46125;61.360;-149.532;2023-05-09T06:20:38;99339.67;;;6.88;35.71
60267;BME280;46125;61.360;-149.532;2023-05-09T06:23:06;99341.95;;;7.35;34.21
60267;BME280;46125;61.360;-149.532;2023-05-09T06:25:35;99342.36;;;7.80;34.30
60267;BME280;46125;61.360;-149.532;2023-05-09T06:28:08;99338.12;;;8.09;31.79
60267;BME280;46125;61.360;-149.532;2023-05-09T06:30:37;99340.74;;;7.22;34.68
60267;BME280;46125;61.360;-149.532;2023-05-09T06:33:05;99343.08;;;5.59;38.97
60267;BME280;46125;61.360;-149.532;2023-05-09T06:35:39;99345.52;;;6.80;36.51
60267;BME280;46125;61.360;-149.532;2023-05-09T06:38:08;99341.82;;;7.29;35.92
60267;BME280;46125;61.360;-149.532;2023-05-09T06:40:36;99343.65;;;7.42;36.03
60267;BME280;46125;61.360;-149.532;2023-05-09T06:43:05;99341.48;;;8.41;33.25
60267;BME280;46125;61.360;-149.532;2023-05-09T06:45:33;99342.42;;;9.03;31.89
60267;BME280;46125;61.360;-149.532;2023-05-09T06:48:02;99343.26;;;8.95;30.79
60267;BME280;46125;61.360;-149.532;2023-05-09T06:50:30;99347.20;;;8.38;34.09
60267;BME280;46125;61.360;-149.532;2023-05-09T06:53:02;99349.02;;;7.72;35.24
60267;BME280;46125;61.360;-149.532;2023-05-09T06:55:30;99349.77;;;6.59;37.04
60267;BME280;46125;61.360;-149.532;2023-05-09T06:58:00;99349.20;;;7.07;37.34
60267;BME280;46125;61.360;-149.532;2023-05-09T07:00:39;99350.73;;;6.20;38.47
60267;BME280;46125;61.360;-149.532;2023-05-09T07:03:09;99351.16;;;6.56;40.27
60267;BME280;46125;61.360;-149.532;2023-05-09T07:05:37;99351.33;;;7.10;39.60
60267;BME280;46125;61.360;-149.532;2023-05-09T07:08:06;99350.13;;;6.78;39.85
60267;BME280;46125;61.360;-149.532;2023-05-09T07:10:34;99353.92;;;6.60;41.93
60267;BME280;46125;61.360;-149.532;2023-05-09T07:13:03;99354.18;;;6.07;43.64
60267;BME280;46125;61.360;-149.532;2023-05-09T07:15:32;99353.59;;;6.49;44.27
60267;BME280;46125;61.360;-149.532;2023-05-09T07:18:00;99355.15;;;6.85;45.03
60267;BME280;46125;61.360;-149.532;2023-05-09T07:20:29;99352.83;;;6.88;41.55
60267;BME280;46125;61.360;-149.532;2023-05-09T07:22:57;99356.18;;;6.45;43.21
60267;BME280;46125;61.360;-149.532;2023-05-09T07:25:26;99355.69;;;5.95;44.55
60267;BME280;46125;61.360;-149.532;2023-05-09T07:27:54;99357.49;;;6.19;44.44
60267;BME280;46125;61.360;-149.532;2023-05-09T07:30:23;99355.02;;;5.81;43.50
60267;BME280;46125;61.360;-149.532;2023-05-09T07:32:52;99357.59;;;6.84;43.47
60267;BME280;46125;61.360;-149.532;2023-05-09T07:35:20;99356.22;;;7.65;41.98
60267;BME280;46125;61.360;-149.532;2023-05-09T07:37:49;99357.22;;;7.27;39.28
60267;BME280;46125;61.360;-149.532;2023-05-09T07:40:17;99357.65;;;7.29;39.26
60267;BME280;46125;61.360;-149.532;2023-05-09T07:42:46;99357.03;;;7.75;40.39
60267;BME280;46125;61.360;-149.532;2023-05-09T07:45:14;99356.85;;;6.51;43.04
60267;BME280;46125;61.360;-149.532;2023-05-09T07:47:43;99353.35;;;5.70;46.08
60267;BME280;46125;61.360;-149.532;2023-05-09T07:50:11;99363.15;;;5.42;46.91
60267;BME280;46125;61.360;-149.532;2023-05-09T07:52:40;99365.49;;;6.02;47.14
60267;BME280;46125;61.360;-149.532;2023-05-09T07:55:09;99370.53;;;5.11;49.83
60267;BME280;46125;61.360;-149.532;2023-05-09T07:57:38;99367.81;;;4.59;51.56
60267;BME280;46125;61.360;-149.532;2023-05-09T08:00:08;99369.24;;;5.34;54.09
60267;BME280;46125;61.360;-149.532;2023-05-09T08:02:37;99370.74;;;5.19;51.90
60267;BME280;46125;61.360;-149.532;2023-05-09T08:05:06;99364.62;;;5.11;53.62
60267;BME280;46125;61.360;-149.532;2023-05-09T08:07:35;99364.15;;;6.71;50.28
60267;BME280;46125;61.360;-149.532;2023-05-09T08:10:09;99368.55;;;6.02;51.43
60267;BME280;46125;61.360;-149.532;2023-05-09T08:12:38;99365.69;;;7.30;47.71
60267;BME280;46125;61.360;-149.532;2023-05-09T08:15:07;99362.89;;;8.00;46.65
60267;BME280;46125;61.360;-149.532;2023-05-09T08:17:36;99365.22;;;7.77;46.89
60267;BME280;46125;61.360;-149.532;2023-05-09T08:20:11;99360.84;;;8.31;45.92
60267;BME280;46125;61.360;-149.532;2023-05-09T08:22:40;99357.23;;;8.25;44.80
60267;BME280;46125;61.360;-149.532;2023-05-09T08:25:09;99355.98;;;8.19;43.67
60267;BME280;46125;61.360;-149.532;2023-05-09T08:27:38;99357.00;;;7.75;46.48
60267;BME280;46125;61.360;-149.532;2023-05-09T08:30:07;99352.86;;;7.99;46.91
60267;BME280;46125;61.360;-149.532;2023-05-09T08:32:36;99348.16;;;7.88;46.81
60267;BME280;46125;61.360;-149.532;2023-05-09T08:35:05;99347.34;;;7.24;46.78
60267;BME280;46125;61.360;-149.532;2023-05-09T08:37:35;99347.21;;;5.73;50.58
60267;BME280;46125;61.360;-149.532;2023-05-09T08:40:04;99340.65;;;4.93;51.94
60267;BME280;46125;61.360;-149.532;2023-05-09T08:42:34;99339.49;;;5.15;54.45
60267;BME280;46125;61.360;-149.532;2023-05-09T08:45:07;99337.22;;;5.92;52.26
60267;BME280;46125;61.360;-149.532;2023-05-09T08:47:37;99332.25;;;5.97;52.43
60267;BME280;46125;61.360;-149.532;2023-05-09T08:50:15;99323.36;;;5.17;52.95
60267;BME280;46125;61.360;-149.532;2023-05-09T08:52:44;99328.86;;;6.52;49.63
60267;BME280;46125;61.360;-149.532;2023-05-09T08:55:14;99325.59;;;4.54;53.63
60267;BME280;46125;61.360;-149.532;2023-05-09T08:57:42;99321.79;;;4.79;51.32
60267;BME280;46125;61.360;-149.532;2023-05-09T09:00:12;99321.89;;;5.46;52.37
60267;BME280;46125;61.360;-149.532;2023-05-09T09:02:41;99319.72;;;5.39;50.13
60267;BME280;46125;61.360;-149.532;2023-05-09T09:05:10;99317.23;;;4.42;54.11
60267;BME280;46125;61.360;-149.532;2023-05-09T09:07:40;99321.38;;;3.21;51.83
60267;BME280;46125;61.360;-149.532;2023-05-09T09:10:10;99320.31;;;3.74;55.19
60267;BME280;46125;61.360;-149.532;2023-05-09T09:12:39;99320.77;;;5.63;49.03
60267;BME280;46125;61.360;-149.532;2023-05-09T09:15:12;99323.87;;;3.64;50.50
60267;BME280;46125;61.360;-149.532;2023-05-09T09:17:43;99319.25;;;6.09;46.44
60267;BME280;46125;61.360;-149.532;2023-05-09T09:20:16;99318.22;;;6.25;46.71
60267;BME280;46125;61.360;-149.532;2023-05-09T09:22:47;99316.26;;;6.29;45.86
60267;BME280;46125;61.360;-149.532;2023-05-09T09:25:18;99313.48;;;6.30;44.86
60267;BME280;46125;61.360;-149.532;2023-05-09T09:27:47;99316.48;;;7.17;42.31
60267;BME280;46125;61.360;-149.532;2023-05-09T09:30:16;99313.41;;;6.98;42.37
60267;BME280;46125;61.360;-149.532;2023-05-09T09:32:45;99311.58;;;7.46;40.77
60267;BME280;46125;61.360;-149.532;2023-05-09T09:35:13;99310.38;;;7.56;41.65
60267;BME280;46125;61.360;-149.532;2023-05-09T09:37:42;99312.86;;;7.07;44.56
60267;BME280;46125;61.360;-149.532;2023-05-09T09:40:11;99310.74;;;7.49;45.68
60267;BME280;46125;61.360;-149.532;2023-05-09T09:42:42;99311.50;;;7.40;46.19
60267;BME280;46125;61.360;-149.532;2023-05-09T09:45:12;99307.93;;;7.33;45.44
60267;BME280;46125;61.360;-149.532;2023-05-09T09:47:43;99314.92;;;7.18;45.55
60267;BME280;46125;61.360;-149.532;2023-05-09T09:50:13;99315.13;;;6.59;47.87
60267;BME280;46125;61.360;-149.532;2023-05-09T09:52:44;99306.95;;;6.99;47.05
60267;BME280;46125;61.360;-149.532;2023-05-09T09:55:17;99303.31;;;6.97;46.27
60267;BME280;46125;61.360;-149.532;2023-05-09T09:57:47;99299.86;;;7.29;45.37
60267;BME280;46125;61.360;-149.532;2023-05-09T10:00:17;99293.38;;;6.80;46.17
60267;BME280;46125;61.360;-149.532;2023-05-09T10:02:48;99286.60;;;7.30;44.90
60267;BME280;46125;61.360;-149.532;2023-05-09T10:05:22;99292.28;;;6.36;46.82
60267;BME280;46125;61.360;-149.532;2023-05-09T10:07:54;99288.43;;;7.41;45.98
60267;BME280;46125;61.360;-149.532;2023-05-09T10:10:24;99279.76;;;6.34;46.24
60267;BME280;46125;61.360;-149.532;2023-05-09T10:12:55;99279.75;;;6.39;46.20
60267;BME280;46125;61.360;-149.532;2023-05-09T10:15:26;99280.69;;;6.69;44.85
60267;BME280;46125;61.360;-149.532;2023-05-09T10:17:57;99273.98;;;7.36;43.30
60267;BME280;46125;61.360;-149.532;2023-05-09T10:20:27;99269.83;;;7.60;42.30
60267;BME280;46125;61.360;-149.532;2023-05-09T10:22:59;99264.57;;;7.49;41.43
60267;BME280;46125;61.360;-149.532;2023-05-09T10:25:35;99263.65;;;7.82;41.04
60267;BME280;46125;61.360;-149.532;2023-05-09T10:28:10;99263.21;;;7.81;40.84
60267;BME280;46125;61.360;-149.532;2023-05-09T10:30:48;99260.78;;;8.06;41.92
60267;BME280;46125;61.360;-149.532;2023-05-09T10:33:22;99255.64;;;8.03;43.99
60267;BME280;46125;61.360;-149.532;2023-05-09T10:35:51;99253.46;;;6.77;45.75
60267;BME280;46125;61.360;-149.532;2023-05-09T10:38:32;99250.25;;;7.14;44.21
60267;BME280;46125;61.360;-149.532;2023-05-09T10:41:00;99248.23;;;7.49;43.93
60267;BME280;46125;61.360;-149.532;2023-05-09T10:43:30;99247.05;;;7.41;43.01
60267;BME280;46125;61.360;-149.532;2023-05-09T10:45:58;99247.72;;;6.41;42.47
60267;BME280;46125;61.360;-149.532;2023-05-09T10:48:28;99245.47;;;4.97;45.11
60267;BME280;46125;61.360;-149.532;2023-05-09T10:50:57;99240.46;;;6.58;44.74
60267;BME280;46125;61.360;-149.532;2023-05-09T10:53:40;99244.40;;;7.02;44.66
60267;BME280;46125;61.360;-149.532;2023-05-09T10:56:24;99247.54;;;7.06;45.43
60267;BME280;46125;61.360;-149.532;2023-05-09T10:58:53;99244.30;;;6.97;45.96
60267;BME280;46125;61.360;-149.532;2023-05-09T11:01:32;99245.34;;;6.95;45.87
60267;BME280;46125;61.360;-149.532;2023-05-09T11:04:02;99241.98;;;7.18;45.96
60267;BME280;46125;61.360;-149.532;2023-05-09T11:06:47;99242.81;;;6.90;44.85
60267;BME280;46125;61.360;-149.532;2023-05-09T11:09:24;99248.98;;;6.47;46.40
60267;BME280;46125;61.360;-149.532;2023-05-09T11:11:53;99247.57;;;5.86;48.48
60267;BME280;46125;61.360;-149.532;2023-05-09T11:14:31;99243.13;;;6.35;47.67
60267;BME280;46125;61.360;-149.532;2023-05-09T11:17:01;99237.95;;;6.20;47.01
60267;BME280;46125;61.360;-149.532;2023-05-09T11:19:56;99236.77;;;6.56;46.43
60267;BME280;46125;61.360;-149.532;2023-05-09T11:22:26;99241.51;;;6.68;46.36
60267;BME280;46125;61.360;-149.532;2023-05-09T11:25:03;99241.51;;;6.22;47.10
60267;BME280;46125;61.360;-149.532;2023-05-09T11:27:41;99238.76;;;6.21;47.71
60267;BME280;46125;61.360;-149.532;2023-05-09T11:30:12;99236.78;;;6.11;47.42
60267;BME280;46125;61.360;-149.532;2023-05-09T11:32:44;99235.49;;;6.39;46.50
60267;BME280;46125;61.360;-149.532;2023-05-09T11:35:14;99235.00;;;5.72;48.53
60267;BME280;46125;61.360;-149.532;2023-05-09T11:37:48;99234.93;;;5.75;48.90
60267;BME280;46125;61.360;-149.532;2023-05-09T11:40:18;99238.58;;;5.46;50.13
60267;BME280;46125;61.360;-149.532;2023-05-09T11:42:49;99240.21;;;5.55;50.18
60267;BME280;46125;61.360;-149.532;2023-05-09T11:45:18;99234.86;;;5.94;50.33
60267;BME280;46125;61.360;-149.532;2023-05-09T11:47:47;99234.90;;;5.66;50.41
60267;BME280;46125;61.360;-149.532;2023-05-09T11:50:17;99234.04;;;6.12;49.44
60267;BME280;46125;61.360;-149.532;2023-05-09T11:52:47;99230.24;;;6.28;47.74
60267;BME280;46125;61.360;-149.532;2023-05-09T11:55:16;99228.11;;;6.31;46.93
60267;BME280;46125;61.360;-149.532;2023-05-09T11:57:48;99230.16;;;6.25;47.29
60267;BME280;46125;61.360;-149.532;2023-05-09T12:00:18;99230.57;;;6.01;47.80
60267;BME280;46125;61.360;-149.532;2023-05-09T12:02:47;99236.61;;;5.97;47.51
60267;BME280;46125;61.360;-149.532;2023-05-09T12:05:17;99231.30;;;6.32;47.43
60267;BME280;46125;61.360;-149.532;2023-05-09T12:07:47;99229.16;;;6.44;47.33
60267;BME280;46125;61.360;-149.532;2023-05-09T12:10:18;99229.77;;;5.84;47.68
60267;BME280;46125;61.360;-149.532;2023-05-09T12:12:48;99229.09;;;5.52;48.38
60267;BME280;46125;61.360;-149.532;2023-05-09T12:15:17;99229.74;;;5.30;50.18
60267;BME280;46125;61.360;-149.532;2023-05-09T12:17:46;99230.18;;;4.06;53.48
60267;BME280;46125;61.360;-149.532;2023-05-09T12:20:15;99227.43;;;4.18;54.14
60267;BME280;46125;61.360;-149.532;2023-05-09T12:22:44;99229.24;;;4.60;52.58
60267;BME280;46125;61.360;-149.532;2023-05-09T12:25:20;99226.30;;;4.34;54.35
60267;BME280;46125;61.360;-149.532;2023-05-09T12:27:49;99220.80;;;3.93;57.04
60267;BME280;46125;61.360;-149.532;2023-05-09T12:30:17;99220.45;;;3.33;57.13
60267;BME280;46125;61.360;-149.532;2023-05-09T12:32:46;99221.91;;;3.97;56.25
60267;BME280;46125;61.360;-149.532;2023-05-09T12:35:14;99219.06;;;3.68;57.33
60267;BME280;46125;61.360;-149.532;2023-05-09T12:37:55;99221.02;;;3.31;57.38
60267;BME280;46125;61.360;-149.532;2023-05-09T12:40:24;99222.27;;;4.59;54.77
60267;BME280;46125;61.360;-149.532;2023-05-09T12:42:52;99219.42;;;4.14;54.77
60267;BME280;46125;61.360;-149.532;2023-05-09T12:45:21;99215.28;;;4.25;55.06
60267;BME280;46125;61.360;-149.532;2023-05-09T12:47:52;99214.98;;;4.57;54.09
60267;BME280;46125;61.360;-149.532;2023-05-09T12:50:20;99211.24;;;4.27;55.41
60267;BME280;46125;61.360;-149.532;2023-05-09T12:52:51;99213.75;;;3.98;55.72
60267;BME280;46125;61.360;-149.532;2023-05-09T12:55:19;99220.44;;;4.06;55.70
60267;BME280;46125;61.360;-149.532;2023-05-09T12:57:58;99226.85;;;4.32;55.43